createdAt,value
2023-03-04T00:00:09.832Z,95848
2023-03-04T00:01:19.503Z,95848
2023-03-04T00:02:28.176Z,95848
2023-03-04T00:03:37.111Z,95852
2023-03-04T00:04:46.778Z,95854
2023-03-04T00:05:55.455Z,95853
2023-03-04T00:07:05.114Z,95853
2023-03-04T00:08:14.836Z,95852
2023-03-04T00:09:24.552Z,95856
2023-03-04T00:10:33.219Z,95853
2023-03-04T00:11:41.879Z,95847
2023-03-04T00:12:50.596Z,95852
2023-03-04T00:14:00.259Z,95850
2023-03-04T00:15:07.893Z,95853
2023-03-04T00:16:16.561Z,95852
2023-03-04T00:17:26.203Z,95852
2023-03-04T00:18:34.882Z,95852
2023-03-04T00:19:43.536Z,95854
2023-03-04T00:20:52.189Z,95856
2023-03-04T00:22:00.876Z,95852
2023-03-04T00:23:10.579Z,95861
2023-03-04T00:24:18.266Z,95856
2023-03-04T00:25:26.925Z,95856
2023-03-04T00:26:36.626Z,95860
2023-03-04T00:27:45.272Z,95861
2023-03-04T00:28:54.985Z,95862
2023-03-04T00:30:03.666Z,95859
2023-03-04T00:31:12.362Z,95860
2023-03-04T00:32:22.095Z,95855
2023-03-04T00:33:30.936Z,95865
2023-03-04T00:34:40.610Z,95862
2023-03-04T00:35:50.279Z,95864
2023-03-04T00:36:59.971Z,95867
2023-03-04T00:38:08.640Z,95868
2023-03-04T00:39:18.330Z,95868
2023-03-04T00:40:27.014Z,95868
2023-03-04T00:41:36.665Z,95868
2023-03-04T00:42:45.336Z,95868
2023-03-04T00:43:55.007Z,95871
2023-03-04T00:45:04.673Z,95871
2023-03-04T00:46:14.421Z,95869
2023-03-04T00:47:22.985Z,95870
2023-03-04T00:48:32.690Z,95868
2023-03-04T00:49:42.359Z,95868
2023-03-04T00:50:52.015Z,95870
2023-03-04T00:52:00.685Z,95869
2023-03-04T00:53:10.402Z,95864
2023-03-04T00:54:20.064Z,95866
2023-03-04T00:55:27.759Z,95869
2023-03-04T00:56:36.424Z,95869
2023-03-04T00:57:46.088Z,95867
2023-03-04T00:58:54.807Z,95873
2023-03-04T01:00:04.468Z,95866
2023-03-04T01:01:14.178Z,95868
2023-03-04T01:02:22.798Z,95866
2023-03-04T01:03:32.541Z,95864
2023-03-04T01:04:41.207Z,95862
2023-03-04T01:05:50.982Z,95861
2023-03-04T01:07:00.649Z,95857
2023-03-04T01:08:09.325Z,95858
2023-03-04T01:09:19.034Z,95856
2023-03-04T01:10:27.707Z,95858
2023-03-04T01:11:36.387Z,95850
2023-03-04T01:12:46.077Z,95847
2023-03-04T01:13:55.747Z,95847
2023-03-04T01:15:04.504Z,95847
2023-03-04T01:16:13.205Z,95849
2023-03-04T01:17:22.830Z,95848
2023-03-04T01:18:32.521Z,95848
2023-03-04T01:19:40.176Z,95847
2023-03-04T01:20:48.816Z,95842
2023-03-04T01:21:58.506Z,95844
2023-03-04T01:23:07.185Z,95841
2023-03-04T01:24:16.896Z,95842
2023-03-04T01:25:25.554Z,95842
2023-03-04T01:26:34.238Z,95842
2023-03-04T01:27:43.941Z,95839
2023-03-04T01:28:52.649Z,95838
2023-03-04T01:30:02.342Z,95836
2023-03-04T01:31:12.157Z,95834
2023-03-04T01:32:19.773Z,95838
2023-03-04T01:33:29.451Z,95840
2023-03-04T01:34:39.112Z,95837
2023-03-04T01:35:47.847Z,95833
2023-03-04T01:36:57.443Z,95838
2023-03-04T01:38:05.286Z,95832
2023-03-04T01:39:14.789Z,95830
2023-03-04T01:40:24.458Z,95833
2023-03-04T01:41:34.122Z,95831
2023-03-04T01:42:42.770Z,95831
2023-03-04T01:43:52.443Z,95832
2023-03-04T01:45:00.178Z,95829
2023-03-04T01:46:09.857Z,95829
2023-03-04T01:47:19.467Z,95827
2023-03-04T01:48:28.226Z,95822
2023-03-04T01:49:37.885Z,95825
2023-03-04T01:50:47.574Z,95826
2023-03-04T01:51:57.267Z,95823
2023-03-04T01:53:06.927Z,95817
2023-03-04T01:54:16.620Z,95814
2023-03-04T01:55:26.308Z,95819
2023-03-04T01:56:36.000Z,95817
2023-03-04T01:57:45.659Z,95820
2023-03-04T01:58:54.392Z,95821
2023-03-04T02:00:03.127Z,95820
2023-03-04T02:01:12.810Z,95819
2023-03-04T02:02:22.442Z,95816
2023-03-04T02:03:30.088Z,95813
2023-03-04T02:04:38.838Z,95811
2023-03-04T02:05:48.477Z,95811
2023-03-04T02:06:56.170Z,95808
2023-03-04T02:08:04.844Z,95806
2023-03-04T02:09:14.528Z,95806
2023-03-04T02:10:24.190Z,95801
2023-03-04T02:11:33.872Z,95799
2023-03-04T02:12:42.542Z,95797
2023-03-04T02:13:51.199Z,95799
2023-03-04T02:15:00.856Z,95802
2023-03-04T02:16:08.627Z,95801
2023-03-04T02:17:17.198Z,95798
2023-03-04T02:18:25.922Z,95796
2023-03-04T02:19:34.579Z,95799
2023-03-04T02:20:44.245Z,95791
2023-03-04T02:21:52.944Z,95795
2023-03-04T02:23:02.634Z,95795
2023-03-04T02:24:12.314Z,95793
2023-03-04T02:25:21.002Z,95793
2023-03-04T02:26:30.659Z,95794
2023-03-04T02:27:39.324Z,95791
2023-03-04T02:28:48.035Z,95790
2023-03-04T02:29:57.851Z,95786
2023-03-04T02:31:07.514Z,95787
2023-03-04T02:32:16.222Z,95784
2023-03-04T02:33:25.835Z,95785
2023-03-04T02:34:33.514Z,95787
2023-03-04T02:35:42.223Z,95787
2023-03-04T02:36:50.847Z,95782
2023-03-04T02:37:58.499Z,95786
2023-03-04T02:39:08.196Z,95788
2023-03-04T02:40:16.861Z,95784
2023-03-04T02:41:25.504Z,95791
2023-03-04T02:42:35.168Z,95787
2023-03-04T02:43:43.826Z,95789
2023-03-04T02:44:53.514Z,95789
2023-03-04T02:46:01.166Z,95787
2023-03-04T02:47:09.814Z,95789
2023-03-04T02:48:19.501Z,95789
2023-03-04T02:49:29.203Z,95785
2023-03-04T02:50:36.868Z,95783
2023-03-04T02:51:46.630Z,95788
2023-03-04T02:52:56.338Z,95788
2023-03-04T02:54:05.052Z,95786
2023-03-04T02:55:12.749Z,95782
2023-03-04T02:56:21.433Z,95785
2023-03-04T02:57:31.097Z,95782
2023-03-04T02:58:40.759Z,95782
2023-03-04T02:59:50.476Z,95785
2023-03-04T03:01:00.322Z,95785
2023-03-04T03:02:08.068Z,95783
2023-03-04T03:03:16.610Z,95784
2023-03-04T03:04:26.342Z,95783
2023-03-04T03:05:35.965Z,95780
2023-03-04T03:06:45.637Z,95780
2023-03-04T03:07:55.319Z,95783
2023-03-04T03:09:04.983Z,95784
2023-03-04T03:10:14.687Z,95781
2023-03-04T03:11:22.323Z,95781
2023-03-04T03:12:30.999Z,95777
2023-03-04T03:13:39.628Z,95782
2023-03-04T03:14:49.385Z,95779
2023-03-04T03:15:59.053Z,95780
2023-03-04T03:17:07.708Z,95780
2023-03-04T03:18:16.382Z,95780
2023-03-04T03:19:26.224Z,95780
2023-03-04T03:20:33.938Z,95777
2023-03-04T03:21:42.564Z,95782
2023-03-04T03:22:52.236Z,95785
2023-03-04T03:24:00.881Z,95785
2023-03-04T03:25:10.552Z,95785
2023-03-04T03:26:18.248Z,95784
2023-03-04T03:27:27.914Z,95788
2023-03-04T03:28:37.620Z,95789
2023-03-04T03:29:45.329Z,95787
2023-03-04T03:30:54.994Z,95787
2023-03-04T03:32:04.682Z,95790
2023-03-04T03:33:13.317Z,95789
2023-03-04T03:34:22.973Z,95792
2023-03-04T03:35:32.745Z,95789
2023-03-04T03:36:41.376Z,95789
2023-03-04T03:37:51.000Z,95791
2023-03-04T03:38:58.714Z,95792
2023-03-04T03:40:08.443Z,95788
2023-03-04T03:41:18.093Z,95790
2023-03-04T03:42:26.789Z,95791
2023-03-04T03:43:35.438Z,95786
2023-03-04T03:44:45.170Z,95789
2023-03-04T03:45:52.900Z,95790
2023-03-04T03:47:02.491Z,95784
2023-03-04T03:48:11.160Z,95788
2023-03-04T03:49:19.847Z,95785
2023-03-04T03:50:29.666Z,95780
2023-03-04T03:51:37.255Z,95784
2023-03-04T03:52:45.929Z,95782
2023-03-04T03:53:55.574Z,95785
2023-03-04T03:55:03.278Z,95786
2023-03-04T03:56:11.945Z,95782
2023-03-04T03:57:21.609Z,95787
2023-03-04T03:58:30.316Z,95778
2023-03-04T03:59:39.950Z,95781
2023-03-04T04:00:48.660Z,95783
2023-03-04T04:01:58.428Z,95782
2023-03-04T04:03:08.100Z,95780
2023-03-04T04:04:16.710Z,95783
2023-03-04T04:05:25.388Z,95782
2023-03-04T04:06:34.085Z,95779
2023-03-04T04:07:43.804Z,95780
2023-03-04T04:08:53.509Z,95774
2023-03-04T04:10:03.149Z,95776
2023-03-04T04:11:12.850Z,95773
2023-03-04T04:12:22.500Z,95777
2023-03-04T04:13:31.180Z,95779
2023-03-04T04:14:41.811Z,95779
2023-03-04T04:15:50.506Z,95784
2023-03-04T04:16:59.198Z,95782
2023-03-04T04:18:08.930Z,95779
2023-03-04T04:19:17.592Z,95782
2023-03-04T04:20:27.274Z,95781
2023-03-04T04:21:36.934Z,95778
2023-03-04T04:22:46.616Z,95784
2023-03-04T04:23:55.267Z,95774
2023-03-04T04:25:03.989Z,95780
2023-03-04T04:26:13.626Z,95781
2023-03-04T04:27:23.311Z,95776
2023-03-04T04:28:30.965Z,95784
2023-03-04T04:29:39.619Z,95786
2023-03-04T04:30:49.391Z,95780
2023-03-04T04:31:58.084Z,95777
2023-03-04T04:33:06.747Z,95774
2023-03-04T04:34:15.520Z,95778
2023-03-04T04:35:25.232Z,95784
2023-03-04T04:36:33.874Z,95777
2023-03-04T04:37:43.611Z,95784
2023-03-04T04:38:52.280Z,95785
2023-03-04T04:40:01.949Z,95782
2023-03-04T04:41:09.706Z,95783
2023-03-04T04:42:18.348Z,95783
2023-03-04T04:43:27.054Z,95784
2023-03-04T04:44:35.702Z,95784
2023-03-04T04:45:45.416Z,95779
2023-03-04T04:46:54.085Z,95782
2023-03-04T04:48:02.720Z,95778
2023-03-04T04:49:12.386Z,95776
2023-03-04T04:50:20.088Z,95778
2023-03-04T04:51:29.782Z,95780
2023-03-04T04:52:38.475Z,95778
2023-03-04T04:53:48.136Z,95779
2023-03-04T04:54:57.806Z,95783
2023-03-04T04:56:06.533Z,95783
2023-03-04T04:57:15.233Z,95787
2023-03-04T04:58:24.891Z,95781
2023-03-04T04:59:33.582Z,95784
2023-03-04T05:00:43.234Z,95785
2023-03-04T05:01:51.002Z,95784
2023-03-04T05:02:59.680Z,95781
2023-03-04T05:04:08.331Z,95785
2023-03-04T05:05:15.988Z,95784
2023-03-04T05:06:24.658Z,95777
2023-03-04T05:07:34.421Z,95780
2023-03-04T05:08:43.993Z,95780
2023-03-04T05:09:52.655Z,95777
2023-03-04T05:11:01.340Z,95783
2023-03-04T05:12:10.037Z,95784
2023-03-04T05:13:19.716Z,95789
2023-03-04T05:14:29.337Z,95785
2023-03-04T05:15:38.069Z,95786
2023-03-04T05:16:47.704Z,95784
2023-03-04T05:17:57.376Z,95788
2023-03-04T05:19:07.054Z,95782
2023-03-04T05:20:15.745Z,95784
2023-03-04T05:21:24.428Z,95783
2023-03-04T05:22:34.180Z,95783
2023-03-04T05:23:41.858Z,95788
2023-03-04T05:24:50.540Z,95791
2023-03-04T05:26:00.223Z,95789
2023-03-04T05:27:06.903Z,95789
2023-03-04T05:28:16.565Z,95785
2023-03-04T05:29:25.279Z,95785
2023-03-04T05:30:34.910Z,95785
2023-03-04T05:31:43.593Z,95781
2023-03-04T05:32:50.230Z,95782
2023-03-04T05:33:59.901Z,95783
2023-03-04T05:35:08.641Z,95788
2023-03-04T05:36:17.338Z,95782
2023-03-04T05:37:26.000Z,95786
2023-03-04T05:38:35.656Z,95792
2023-03-04T05:39:45.339Z,95788
2023-03-04T05:40:52.991Z,95791
2023-03-04T05:42:01.679Z,95783
2023-03-04T05:43:11.348Z,95787
2023-03-04T05:44:19.997Z,95789
2023-03-04T05:45:28.678Z,95790
2023-03-04T05:46:38.400Z,95792
2023-03-04T05:47:47.008Z,95793
2023-03-04T05:48:55.681Z,95788
2023-03-04T05:50:05.361Z,95788
2023-03-04T05:51:13.024Z,95788
2023-03-04T05:52:22.767Z,95793
2023-03-04T05:53:31.426Z,95792
2023-03-04T05:54:40.125Z,95791
2023-03-04T05:55:48.792Z,95790
2023-03-04T05:56:57.461Z,95793
2023-03-04T05:58:07.136Z,95794
2023-03-04T05:59:14.802Z,95797
2023-03-04T06:00:24.487Z,95792
2023-03-04T06:01:34.359Z,95799
2023-03-04T06:02:44.144Z,95797
2023-03-04T06:03:53.721Z,95799
2023-03-04T06:05:03.475Z,95799
2023-03-04T06:06:12.173Z,95799
2023-03-04T06:07:21.982Z,95798
2023-03-04T06:08:29.648Z,95799
2023-03-04T06:09:38.315Z,95801
2023-03-04T06:10:48.985Z,95805
2023-03-04T06:11:58.714Z,95802
2023-03-04T06:13:07.395Z,95806
2023-03-04T06:14:17.254Z,95808
2023-03-04T06:15:24.796Z,95809
2023-03-04T06:16:33.470Z,95807
2023-03-04T06:17:43.196Z,95804
2023-03-04T06:18:52.838Z,95809
2023-03-04T06:20:02.519Z,95807
2023-03-04T06:21:11.189Z,95812
2023-03-04T06:22:19.942Z,95808
2023-03-04T06:23:29.604Z,95813
2023-03-04T06:24:36.364Z,95812
2023-03-04T06:25:46.072Z,95817
2023-03-04T06:26:55.758Z,95813
2023-03-04T06:28:05.517Z,95815
2023-03-04T06:29:15.160Z,95819
2023-03-04T06:30:23.855Z,95826
2023-03-04T06:31:33.625Z,95828
2023-03-04T06:32:43.255Z,95829
2023-03-04T06:33:51.973Z,95820
2023-03-04T06:35:00.675Z,95824
2023-03-04T06:36:10.313Z,95829
2023-03-04T06:37:18.064Z,95833
2023-03-04T06:38:27.718Z,95824
2023-03-04T06:39:37.433Z,95820
2023-03-04T06:40:47.114Z,95829
2023-03-04T06:41:57.809Z,95833
2023-03-04T06:43:05.456Z,95831
2023-03-04T06:44:15.160Z,95831
2023-03-04T06:45:24.820Z,95828
2023-03-04T06:46:33.581Z,95829
2023-03-04T06:47:42.287Z,95832
2023-03-04T06:48:51.993Z,95826
2023-03-04T06:50:00.683Z,95831
2023-03-04T06:51:10.445Z,95828
2023-03-04T06:52:19.105Z,95826
2023-03-04T06:53:27.763Z,95829
2023-03-04T06:54:37.447Z,95827
2023-03-04T06:55:45.116Z,95830
2023-03-04T06:56:54.797Z,95826
2023-03-04T06:58:04.508Z,95830
2023-03-04T06:59:13.133Z,95834
2023-03-04T07:00:22.823Z,95838
2023-03-04T07:01:32.485Z,95841
2023-03-04T07:02:41.191Z,95842
2023-03-04T07:03:50.962Z,95844
2023-03-04T07:04:59.587Z,95841
2023-03-04T07:06:08.288Z,95844
2023-03-04T07:07:17.922Z,95844
2023-03-04T07:08:27.620Z,95837
2023-03-04T07:09:37.272Z,95838
2023-03-04T07:10:44.927Z,95839
2023-03-04T07:11:53.578Z,95841
2023-03-04T07:13:03.257Z,95843
2023-03-04T07:14:11.917Z,95843
2023-03-04T07:15:20.582Z,95841
2023-03-04T07:16:30.322Z,95840
2023-03-04T07:17:38.935Z,95846
2023-03-04T07:18:48.646Z,95844
2023-03-04T07:19:56.322Z,95846
2023-03-04T07:21:05.002Z,95844
2023-03-04T07:22:14.717Z,95846
2023-03-04T07:23:24.423Z,95848
2023-03-04T07:24:34.082Z,95849
2023-03-04T07:25:42.760Z,95851
2023-03-04T07:26:51.424Z,95845
2023-03-04T07:28:01.108Z,95854
2023-03-04T07:29:08.764Z,95853
2023-03-04T07:30:17.421Z,95856
2023-03-04T07:31:27.162Z,95857
2023-03-04T07:32:34.865Z,95858
2023-03-04T07:33:44.617Z,95858
2023-03-04T07:34:53.278Z,95859
2023-03-04T07:36:02.218Z,95864
2023-03-04T07:39:57.706Z,95868
2023-03-04T07:41:07.349Z,95864
2023-03-04T07:58:16.960Z,95880
2023-03-04T07:59:26.742Z,95887
2023-03-04T08:00:34.458Z,95882
2023-03-04T08:01:45.601Z,95885
2023-03-04T08:02:53.893Z,95883
2023-03-04T08:04:02.648Z,95884
2023-03-04T08:05:11.327Z,95888
2023-03-04T08:06:20.036Z,95888
2023-03-04T08:07:28.687Z,95894
2023-03-04T08:08:38.375Z,95896
2023-03-04T08:09:47.140Z,95897
2023-03-04T08:10:55.852Z,95894
2023-03-04T08:12:05.541Z,95896
2023-03-04T08:13:14.212Z,95899
2023-03-04T08:14:23.988Z,95893
2023-03-04T08:15:33.641Z,95892
2023-03-04T08:16:42.322Z,95890
2023-03-04T08:17:51.011Z,95891
2023-03-04T08:18:58.729Z,95899
2023-03-04T08:20:07.406Z,95895
2023-03-04T08:21:17.123Z,95895
2023-03-04T08:22:25.819Z,95901
2023-03-04T08:23:35.585Z,95898
2023-03-04T08:24:44.245Z,95895
2023-03-04T08:25:52.934Z,95888
2023-03-04T08:27:02.617Z,95885
2023-03-04T08:28:10.322Z,95891
2023-03-04T08:29:19.990Z,95889
2023-03-04T08:30:27.809Z,95892
2023-03-04T08:31:36.545Z,95889
2023-03-04T08:32:46.318Z,95885
2023-03-04T08:33:53.807Z,95894
2023-03-04T08:35:02.535Z,95894
2023-03-04T08:36:12.171Z,95888
2023-03-04T08:37:20.861Z,95891
2023-03-04T08:38:30.566Z,95887
2023-03-04T08:39:39.291Z,95892
2023-03-04T08:40:47.963Z,95893
2023-03-04T08:41:57.632Z,95894
2023-03-04T08:43:06.310Z,95890
2023-03-04T08:44:15.057Z,95888
2023-03-04T08:45:23.729Z,95894
2023-03-04T08:46:32.453Z,95894
2023-03-04T08:47:42.111Z,95891
2023-03-04T08:48:50.787Z,95891
2023-03-04T08:50:00.494Z,95889
2023-03-04T08:51:10.163Z,95890
2023-03-04T08:52:17.883Z,95886
2023-03-04T08:53:27.544Z,95889
2023-03-04T08:54:36.315Z,95891
2023-03-04T08:55:45.107Z,95891
2023-03-04T08:56:54.740Z,95892
2023-03-04T08:58:03.451Z,95894
2023-03-04T08:59:12.169Z,95895
2023-03-04T09:00:21.970Z,95896
2023-03-04T09:01:30.718Z,95897
2023-03-04T09:02:40.473Z,95900
2023-03-04T09:03:50.193Z,95898
2023-03-04T09:04:59.917Z,95896
2023-03-04T09:06:09.584Z,95895
2023-03-04T09:07:18.294Z,95892
2023-03-04T09:08:28.017Z,95892
2023-03-04T09:09:37.738Z,95893
2023-03-04T09:10:46.420Z,95891
2023-03-04T09:11:55.156Z,95896
2023-03-04T09:13:04.846Z,95892
2023-03-04T09:14:13.508Z,95882
2023-03-04T09:15:23.250Z,95885
2023-03-04T09:16:31.950Z,95886
2023-03-04T09:17:41.645Z,95880
2023-03-04T09:18:51.365Z,95887
2023-03-04T09:20:03.871Z,95880
2023-03-04T09:21:10.822Z,95880
2023-03-04T09:22:20.492Z,95877
2023-03-04T09:23:29.183Z,95875
2023-03-04T09:24:38.894Z,95877
2023-03-04T09:25:46.553Z,95875
2023-03-04T09:26:55.218Z,95868
2023-03-04T09:28:11.566Z,95873
2023-03-04T09:29:26.263Z,95870
2023-03-04T09:30:34.974Z,95871
2023-03-04T09:31:43.689Z,95879
2023-03-04T09:32:52.304Z,95878
2023-03-04T09:34:02.008Z,95881
2023-03-04T09:35:11.766Z,95882
2023-03-04T09:36:21.470Z,95880
2023-03-04T09:37:31.141Z,95879
2023-03-04T09:38:39.815Z,95880
2023-03-04T09:39:49.549Z,95880
2023-03-04T09:40:58.257Z,95882
2023-03-04T09:42:06.943Z,95886
2023-03-04T09:43:16.635Z,95874
2023-03-04T09:44:24.377Z,95875
2023-03-04T09:45:34.003Z,95869
2023-03-04T09:46:43.700Z,95882
2023-03-04T09:47:52.409Z,95869
2023-03-04T09:49:01.087Z,95875
2023-03-04T09:50:10.756Z,95877
2023-03-04T09:51:20.457Z,95869
2023-03-04T09:52:30.165Z,95871
2023-03-04T09:53:39.966Z,95874
2023-03-04T09:54:49.630Z,95876
2023-03-04T09:55:59.401Z,95878
2023-03-04T09:57:07.031Z,95874
2023-03-04T09:58:15.670Z,95869
2023-03-04T09:59:24.346Z,95871
2023-03-04T10:00:33.098Z,95869
2023-03-04T10:01:42.714Z,95877
2023-03-04T10:02:50.412Z,95871
2023-03-04T10:03:59.175Z,95865
2023-03-04T10:05:08.823Z,95865
2023-03-04T10:06:17.565Z,95864
2023-03-04T10:07:26.318Z,95861
2023-03-04T10:08:34.992Z,95864
2023-03-04T10:09:42.646Z,95861
2023-03-04T10:10:52.406Z,95867
2023-03-04T10:12:00.997Z,95863
2023-03-04T10:13:11.908Z,95862
2023-03-04T10:14:21.469Z,95864
2023-03-04T10:15:30.187Z,95862
2023-03-04T10:16:39.923Z,95863
2023-03-04T10:17:48.547Z,95859
2023-03-04T10:18:57.209Z,95859
2023-03-04T10:20:06.950Z,95854
2023-03-04T10:21:15.631Z,95851
2023-03-04T10:22:24.359Z,95853
2023-03-04T10:23:34.032Z,95852
2023-03-04T10:24:43.678Z,95849
2023-03-04T10:25:52.431Z,95845
2023-03-04T10:27:00.097Z,95844
2023-03-04T10:28:08.819Z,95849
2023-03-04T10:29:18.528Z,95855
2023-03-04T10:30:27.200Z,95851
2023-03-04T10:31:37.028Z,95849
2023-03-04T10:32:45.616Z,95848
2023-03-04T10:33:54.361Z,95841
2023-03-04T10:35:04.066Z,95847
2023-03-04T10:36:12.814Z,95843
2023-03-04T10:37:21.486Z,95847
2023-03-04T10:38:30.192Z,95850
2023-03-04T10:39:39.833Z,95846
2023-03-04T10:40:49.546Z,95848
2023-03-04T10:41:57.373Z,95844
2023-03-04T10:43:05.895Z,95848
2023-03-04T10:44:15.582Z,95842
2023-03-04T10:45:23.319Z,95840
2023-03-04T10:46:31.979Z,95838
2023-03-04T10:47:41.671Z,95837
2023-03-04T10:48:56.912Z,95837
2023-03-04T10:50:06.587Z,95833
2023-03-04T10:51:15.296Z,95840
2023-03-04T10:52:25.896Z,95841
2023-03-04T10:53:35.594Z,95836
2023-03-04T10:54:45.303Z,95834
2023-03-04T10:55:54.023Z,95833
2023-03-04T10:57:03.724Z,95827
2023-03-04T10:58:13.391Z,95824
2023-03-04T10:59:23.058Z,95833
2023-03-04T11:00:30.750Z,95826
2023-03-04T11:01:39.454Z,95824
2023-03-04T11:02:49.115Z,95826
2023-03-04T11:03:56.831Z,95831
2023-03-04T11:05:05.468Z,95823
2023-03-04T11:06:14.191Z,95822
2023-03-04T11:07:23.900Z,95823
2023-03-04T11:38:14.147Z,95814
2023-03-04T11:39:23.821Z,95821
2023-03-04T11:40:32.490Z,95818
2023-03-04T11:41:41.197Z,95817
2023-03-04T11:42:50.889Z,95816
2023-03-04T11:43:58.566Z,95823
2023-03-04T11:45:18.414Z,95819
2023-03-04T11:46:18.946Z,95815
2023-03-04T11:47:26.709Z,95814
2023-03-04T11:48:34.409Z,95807
2023-03-04T11:49:44.104Z,95810
2023-03-04T11:50:52.769Z,95817
2023-03-04T11:52:02.484Z,95807
2023-03-04T11:53:10.171Z,95806
2023-03-04T11:54:19.886Z,95805
2023-03-04T11:55:29.574Z,95808
2023-03-04T11:56:37.228Z,95807
2023-03-04T11:57:45.992Z,95807
2023-03-04T11:58:54.671Z,95805
2023-03-04T12:00:03.345Z,95805
2023-03-04T12:01:14.033Z,95803
2023-03-04T12:02:21.732Z,95797
2023-03-04T12:03:30.438Z,95798
2023-03-04T12:04:40.132Z,95796
2023-03-04T12:05:48.815Z,95801
2023-03-04T12:06:58.046Z,95798
2023-03-04T12:08:06.768Z,95792
2023-03-04T12:09:16.080Z,95795
2023-03-04T12:10:25.136Z,95794
2023-03-04T12:11:35.799Z,95798
2023-03-04T12:12:44.547Z,95789
2023-03-04T12:13:54.171Z,95788
2023-03-04T12:15:01.868Z,95783
2023-03-04T12:16:10.590Z,95783
2023-03-04T12:17:20.381Z,95788
2023-03-04T12:18:28.929Z,95787
2023-03-04T12:19:38.611Z,95785
2023-03-04T12:20:47.280Z,95783
2023-03-04T12:21:55.957Z,95780
2023-03-04T12:23:05.657Z,95766
2023-03-04T12:24:14.373Z,95769
2023-03-04T12:25:23.303Z,95768
2023-03-04T12:26:31.758Z,95769
2023-03-04T12:27:41.448Z,95768
2023-03-04T12:28:51.141Z,95771
2023-03-04T12:29:59.835Z,95767
2023-03-04T12:31:08.564Z,95766
2023-03-04T12:32:19.522Z,95765
2023-03-04T12:33:27.909Z,95759
2023-03-04T12:34:37.556Z,95760
2023-03-04T12:35:46.279Z,95751
2023-03-04T12:36:54.892Z,95753
2023-03-04T12:38:04.628Z,95753
2023-03-04T12:39:13.290Z,95752
2023-03-04T12:40:23.078Z,95751
2023-03-04T12:41:32.709Z,95741
2023-03-04T12:42:41.577Z,95743
2023-03-04T12:43:51.220Z,95738
2023-03-04T12:45:00.918Z,95741
2023-03-04T12:46:10.607Z,95740
2023-03-04T12:47:20.308Z,95736
2023-03-04T12:48:29.023Z,95739
2023-03-04T12:49:37.689Z,95739
2023-03-04T12:50:47.372Z,95742
2023-03-04T12:51:57.055Z,95735
2023-03-04T12:53:04.765Z,95731
2023-03-04T12:54:12.442Z,95735
2023-03-04T12:55:21.104Z,95738
2023-03-04T12:56:29.801Z,95728
2023-03-04T12:57:39.516Z,95730
2023-03-04T12:58:49.223Z,95729
2023-03-04T12:59:58.874Z,95740
2023-03-04T13:01:07.653Z,95733
2023-03-04T13:02:17.397Z,95732
2023-03-04T13:03:25.114Z,95734
2023-03-04T13:04:33.719Z,95724
2023-03-04T13:05:42.403Z,95726
2023-03-04T13:06:51.116Z,95725
2023-03-04T13:08:00.830Z,95723
2023-03-04T13:09:08.515Z,95718
2023-03-04T13:10:17.204Z,95722
2023-03-04T13:11:26.861Z,95720
2023-03-04T13:12:34.592Z,95718
2023-03-04T13:13:43.294Z,95717
2023-03-04T13:14:52.983Z,95720
2023-03-04T13:16:02.696Z,95719
2023-03-04T13:17:12.334Z,95715
2023-03-04T13:18:20.057Z,95719
2023-03-04T13:19:29.705Z,95718
2023-03-04T13:20:39.406Z,95714
2023-03-04T13:21:47.047Z,95720
2023-03-04T13:22:55.920Z,95722
2023-03-04T13:24:05.604Z,95717
2023-03-04T13:25:14.281Z,95715
2023-03-04T13:26:23.996Z,95715
2023-03-04T13:27:34.106Z,95713
2023-03-04T13:28:42.322Z,95714
2023-03-04T13:29:52.017Z,95714
2023-03-04T13:30:59.720Z,95711
2023-03-04T13:32:09.435Z,95708
2023-03-04T13:33:19.088Z,95710
2023-03-04T13:34:27.782Z,95708
2023-03-04T13:35:37.500Z,95709
2023-03-04T13:36:46.147Z,95709
2023-03-04T13:37:54.823Z,95706
2023-03-04T13:39:05.513Z,95706
2023-03-04T13:40:14.383Z,95707
2023-03-04T13:41:20.849Z,95704
2023-03-04T13:42:29.514Z,95704
2023-03-04T13:43:38.223Z,95706
2023-03-04T13:44:46.918Z,95693
2023-03-04T13:45:55.661Z,95703
2023-03-04T13:47:04.444Z,95690
2023-03-04T13:48:14.044Z,95697
2023-03-04T13:49:22.731Z,95691
2023-03-04T13:50:31.414Z,95699
2023-03-04T13:51:41.098Z,95692
2023-03-04T13:52:50.796Z,95694
2023-03-04T13:54:00.681Z,95697
2023-03-04T13:55:10.201Z,95694
2023-03-04T13:56:18.865Z,95695
2023-03-04T13:57:28.588Z,95696
2023-03-04T13:58:37.309Z,95696
2023-03-04T13:59:45.000Z,95695
2023-03-04T14:00:53.763Z,95695
2023-03-04T14:02:02.346Z,95688
2023-03-04T14:03:12.042Z,95690
2023-03-04T14:04:22.844Z,95688
2023-03-04T14:05:32.445Z,95691
2023-03-04T14:06:42.116Z,95691
2023-03-04T14:07:49.828Z,95688
2023-03-04T14:08:59.575Z,95689
2023-03-04T14:10:09.245Z,95690
2023-03-04T14:11:17.917Z,95686
2023-03-04T14:12:27.664Z,95691
2023-03-04T14:13:35.312Z,95695
2023-03-04T14:14:44.004Z,95691
2023-03-04T14:15:53.675Z,95694
2023-03-04T14:17:02.428Z,95691
2023-03-04T14:18:11.225Z,95688
2023-03-04T14:19:19.983Z,95691
2023-03-04T14:20:29.712Z,95696
2023-03-04T14:21:39.439Z,95686
2023-03-04T14:22:47.079Z,95692
2023-03-04T14:23:55.776Z,95687
2023-03-04T14:25:05.471Z,95688
2023-03-04T14:26:14.174Z,95684
2023-03-04T14:27:22.866Z,95682
2023-03-04T14:28:31.648Z,95682
2023-03-04T14:29:40.324Z,95686
2023-03-04T14:30:50.094Z,95687
2023-03-04T14:31:57.904Z,95686
2023-03-04T14:33:06.491Z,95681
2023-03-04T14:34:16.218Z,95685
2023-03-04T14:35:23.967Z,95684
2023-03-04T14:36:33.578Z,95686
2023-03-04T14:37:42.297Z,95685
2023-03-04T14:38:50.970Z,95687
2023-03-04T14:40:00.697Z,95680
2023-03-04T14:41:09.386Z,95673
2023-03-04T14:42:18.079Z,95677
2023-03-04T14:43:26.801Z,95673
2023-03-04T14:44:35.648Z,95669
2023-03-04T14:45:45.289Z,95667
2023-03-04T14:47:06.302Z,95673
2023-03-04T14:48:03.601Z,95671
2023-03-04T14:49:13.349Z,95676
2023-03-04T14:50:21.060Z,95677
2023-03-04T14:51:30.794Z,95679
2023-03-04T14:52:40.447Z,95677
2023-03-04T14:53:49.103Z,95676
2023-03-04T14:54:58.811Z,95673
2023-03-04T14:56:06.531Z,95680
2023-03-04T14:57:16.206Z,95677
2023-03-04T14:58:24.860Z,95679
2023-03-04T14:59:34.552Z,95682
2023-03-04T15:00:44.242Z,95683
2023-03-04T15:01:50.925Z,95681
2023-03-04T15:02:59.643Z,95680
2023-03-04T15:04:09.367Z,95677
2023-03-04T15:05:17.671Z,95679
2023-03-04T15:06:26.745Z,95677
2023-03-04T15:07:35.442Z,95678
2023-03-04T15:08:45.109Z,95681
2023-03-04T15:09:55.851Z,95676
2023-03-04T15:11:03.530Z,95687
2023-03-04T15:12:13.199Z,95679
2023-03-04T15:13:23.042Z,95678
2023-03-04T15:14:30.763Z,95679
2023-03-04T15:15:39.416Z,95677
2023-03-04T15:16:48.252Z,95677
2023-03-04T15:17:57.549Z,95670
2023-03-04T15:19:07.276Z,95671
2023-03-04T15:20:15.971Z,95681
2023-03-04T15:21:24.639Z,95674
2023-03-04T15:22:34.344Z,95675
2023-03-04T15:23:43.054Z,95674
2023-03-04T15:24:52.765Z,95674
2023-03-04T15:26:02.489Z,95671
2023-03-04T15:27:12.192Z,95673
2023-03-04T15:28:21.900Z,95674
2023-03-04T15:29:31.589Z,95674
2023-03-04T15:30:40.362Z,95671
2023-03-04T15:31:50.042Z,95677
2023-03-04T15:32:58.756Z,95683
2023-03-04T15:34:07.652Z,95684
2023-03-04T15:35:16.368Z,95676
2023-03-04T15:36:25.081Z,95679
2023-03-04T15:37:34.812Z,95677